sensor_id;sensor_type;location;lat;lon;timestamp;P1;durP1;ratioP1;P2;durP2;ratioP2
15094;SDS011;7648;52.264;9.632;2022-11-15T00:03:10;5.40;;;4.67;;
15094;SDS011;7648;52.264;9.632;2022-11-15T00:07:32;5.50;;;5.10;;
15094;SDS011;7648;52.264;9.632;2022-11-15T00:11:53;5.03;;;4.63;;
15094;SDS011;7648;52.264;9.632;2022-11-15T00:16:13;4.77;;;4.37;;
15094;SDS011;7648;52.264;9.632;2022-11-15T00:20:35;5.53;;;4.73;;
15094;SDS011;7648;52.264;9.632;2022-11-15T00:24:55;5.63;;;4.63;;
15094;SDS011;7648;52.264;9.632;2022-11-15T00:29:16;5.20;;;4.70;;
15094;SDS011;7648;52.264;9.632;2022-11-15T00:33:37;7.70;;;5.70;;
15094;SDS011;7648;52.264;9.632;2022-11-15T00:37:59;6.00;;;4.77;;
15094;SDS011;7648;52.264;9.632;2022-11-15T00:42:20;5.43;;;5.00;;
15094;SDS011;7648;52.264;9.632;2022-11-15T00:46:40;5.63;;;4.97;;
15094;SDS011;7648;52.264;9.632;2022-11-15T00:51:01;6.10;;;5.57;;
15094;SDS011;7648;52.264;9.632;2022-11-15T00:55:23;6.30;;;4.87;;
15094;SDS011;7648;52.264;9.632;2022-11-15T00:59:43;6.87;;;4.90;;
15094;SDS011;7648;52.264;9.632;2022-11-15T01:04:03;5.63;;;4.83;;
15094;SDS011;7648;52.264;9.632;2022-11-15T01:08:24;7.33;;;5.30;;
15094;SDS011;7648;52.264;9.632;2022-11-15T01:12:46;5.83;;;5.23;;
15094;SDS011;7648;52.264;9.632;2022-11-15T01:17:07;4.53;;;4.23;;
15094;SDS011;7648;52.264;9.632;2022-11-15T01:21:27;5.33;;;4.83;;
15094;SDS011;7648;52.264;9.632;2022-11-15T01:25:48;5.40;;;4.70;;
15094;SDS011;7648;52.264;9.632;2022-11-15T01:30:10;4.87;;;4.47;;
15094;SDS011;7648;52.264;9.632;2022-11-15T01:34:31;5.50;;;5.00;;
15094;SDS011;7648;52.264;9.632;2022-11-15T01:38:52;6.13;;;4.50;;
15094;SDS011;7648;52.264;9.632;2022-11-15T01:43:20;5.43;;;5.03;;
15094;SDS011;7648;52.264;9.632;2022-11-15T01:47:44;5.90;;;5.37;;
15094;SDS011;7648;52.264;9.632;2022-11-15T01:52:09;5.43;;;5.03;;
15094;SDS011;7648;52.264;9.632;2022-11-15T01:56:35;8.77;;;5.80;;
15094;SDS011;7648;52.264;9.632;2022-11-15T02:00:57;5.43;;;4.93;;
15094;SDS011;7648;52.264;9.632;2022-11-15T02:05:20;5.47;;;4.97;;
15094;SDS011;7648;52.264;9.632;2022-11-15T02:09:40;5.30;;;4.80;;
15094;SDS011;7648;52.264;9.632;2022-11-15T02:14:01;6.87;;;5.23;;
15094;SDS011;7648;52.264;9.632;2022-11-15T02:18:24;5.73;;;5.13;;
15094;SDS011;7648;52.264;9.632;2022-11-15T02:23:02;5.47;;;4.93;;
15094;SDS011;7648;52.264;9.632;2022-11-15T02:27:57;7.50;;;5.63;;
15094;SDS011;7648;52.264;9.632;2022-11-15T02:32:32;5.23;;;4.83;;
15094;SDS011;7648;52.264;9.632;2022-11-15T02:37:00;5.60;;;5.10;;
15094;SDS011;7648;52.264;9.632;2022-11-15T02:41:27;5.37;;;4.97;;
15094;SDS011;7648;52.264;9.632;2022-11-15T02:45:55;5.93;;;4.67;;
15094;SDS011;7648;52.264;9.632;2022-11-15T02:50:23;5.73;;;5.23;;
15094;SDS011;7648;52.264;9.632;2022-11-15T02:54:52;7.00;;;4.80;;
15094;SDS011;7648;52.264;9.632;2022-11-15T02:59:18;9.93;;;5.70;;
15094;SDS011;7648;52.264;9.632;2022-11-15T03:03:59;7.03;;;5.87;;
15094;SDS011;7648;52.264;9.632;2022-11-15T03:08:31;5.40;;;5.00;;
15094;SDS011;7648;52.264;9.632;2022-11-15T03:12:55;5.97;;;5.37;;
15094;SDS011;7648;52.264;9.632;2022-11-15T03:17:20;6.73;;;5.13;;
15094;SDS011;7648;52.264;9.632;2022-11-15T03:21:45;5.70;;;4.83;;
15094;SDS011;7648;52.264;9.632;2022-11-15T03:26:11;5.97;;;5.37;;
15094;SDS011;7648;52.264;9.632;2022-11-15T03:30:34;5.73;;;5.00;;
15094;SDS011;7648;52.264;9.632;2022-11-15T03:34:56;6.07;;;4.80;;
15094;SDS011;7648;52.264;9.632;2022-11-15T03:39:20;4.93;;;4.53;;
15094;SDS011;7648;52.264;9.632;2022-11-15T03:43:44;4.70;;;4.40;;
15094;SDS011;7648;52.264;9.632;2022-11-15T03:48:12;5.07;;;4.60;;
15094;SDS011;7648;52.264;9.632;2022-11-15T03:52:36;4.67;;;4.27;;
15094;SDS011;7648;52.264;9.632;2022-11-15T03:56:56;6.30;;;4.33;;
15094;SDS011;7648;52.264;9.632;2022-11-15T04:01:18;4.13;;;3.83;;
15094;SDS011;7648;52.264;9.632;2022-11-15T04:05:39;5.40;;;4.27;;
15094;SDS011;7648;52.264;9.632;2022-11-15T04:09:59;4.30;;;3.90;;
15094;SDS011;7648;52.264;9.632;2022-11-15T04:14:22;3.70;;;3.40;;
15094;SDS011;7648;52.264;9.632;2022-11-15T04:18:44;4.33;;;4.00;;
15094;SDS011;7648;52.264;9.632;2022-11-15T04:23:25;3.77;;;3.47;;
15094;SDS011;7648;52.264;9.632;2022-11-15T04:28:03;3.90;;;3.60;;
15094;SDS011;7648;52.264;9.632;2022-11-15T04:32:24;4.13;;;3.83;;
15094;SDS011;7648;52.264;9.632;2022-11-15T04:36:46;4.07;;;3.77;;
15094;SDS011;7648;52.264;9.632;2022-11-15T04:41:24;3.70;;;3.23;;
15094;SDS011;7648;52.264;9.632;2022-11-15T04:45:44;3.77;;;3.57;;
15094;SDS011;7648;52.264;9.632;2022-11-15T04:50:06;4.23;;;3.83;;
15094;SDS011;7648;52.264;9.632;2022-11-15T04:54:28;4.43;;;3.93;;
15094;SDS011;7648;52.264;9.632;2022-11-15T04:58:48;3.73;;;3.43;;
15094;SDS011;7648;52.264;9.632;2022-11-15T05:03:09;4.70;;;3.70;;
15094;SDS011;7648;52.264;9.632;2022-11-15T05:07:47;3.80;;;3.60;;
15094;SDS011;7648;52.264;9.632;2022-11-15T05:12:09;3.97;;;3.77;;
15094;SDS011;7648;52.264;9.632;2022-11-15T05:16:29;3.53;;;3.33;;
15094;SDS011;7648;52.264;9.632;2022-11-15T05:20:50;5.10;;;4.60;;
15094;SDS011;7648;52.264;9.632;2022-11-15T05:25:10;6.00;;;5.40;;
15094;SDS011;7648;52.264;9.632;2022-11-15T05:29:32;5.20;;;4.80;;
15094;SDS011;7648;52.264;9.632;2022-11-15T05:33:53;4.43;;;4.13;;
15094;SDS011;7648;52.264;9.632;2022-11-15T05:38:15;4.40;;;3.77;;
15094;SDS011;7648;52.264;9.632;2022-11-15T05:42:36;4.23;;;4.00;;
15094;SDS011;7648;52.264;9.632;2022-11-15T05:46:58;4.33;;;4.03;;
15094;SDS011;7648;52.264;9.632;2022-11-15T05:51:19;4.30;;;3.97;;
15094;SDS011;7648;52.264;9.632;2022-11-15T05:55:41;5.03;;;4.73;;
15094;SDS011;7648;52.264;9.632;2022-11-15T06:00:02;3.67;;;3.43;;
15094;SDS011;7648;52.264;9.632;2022-11-15T06:04:24;4.30;;;4.00;;
15094;SDS011;7648;52.264;9.632;2022-11-15T06:08:45;3.77;;;3.47;;
15094;SDS011;7648;52.264;9.632;2022-11-15T06:13:06;6.33;;;5.83;;
15094;SDS011;7648;52.264;9.632;2022-11-15T06:17:27;5.37;;;5.07;;
15094;SDS011;7648;52.264;9.632;2022-11-15T06:21:49;4.30;;;3.90;;
15094;SDS011;7648;52.264;9.632;2022-11-15T06:26:10;4.30;;;3.90;;
15094;SDS011;7648;52.264;9.632;2022-11-15T06:30:30;3.57;;;3.27;;
15094;SDS011;7648;52.264;9.632;2022-11-15T06:34:51;4.17;;;3.77;;
15094;SDS011;7648;52.264;9.632;2022-11-15T06:39:13;3.50;;;2.90;;
15094;SDS011;7648;52.264;9.632;2022-11-15T06:43:34;3.97;;;3.67;;
15094;SDS011;7648;52.264;9.632;2022-11-15T06:47:54;3.40;;;3.20;;
15094;SDS011;7648;52.264;9.632;2022-11-15T06:52:15;3.50;;;3.30;;
15094;SDS011;7648;52.264;9.632;2022-11-15T06:56:38;2.97;;;2.83;;
15094;SDS011;7648;52.264;9.632;2022-11-15T07:00:59;4.03;;;3.50;;
15094;SDS011;7648;52.264;9.632;2022-11-15T07:05:20;4.13;;;3.83;;
15094;SDS011;7648;52.264;9.632;2022-11-15T07:09:41;3.73;;;3.53;;
15094;SDS011;7648;52.264;9.632;2022-11-15T07:14:03;3.83;;;3.53;;
15094;SDS011;7648;52.264;9.632;2022-11-15T07:18:23;4.00;;;3.60;;
15094;SDS011;7648;52.264;9.632;2022-11-15T07:22:46;4.37;;;3.97;;
15094;SDS011;7648;52.264;9.632;2022-11-15T07:27:06;4.97;;;4.17;;
15094;SDS011;7648;52.264;9.632;2022-11-15T07:31:28;3.50;;;3.20;;
15094;SDS011;7648;52.264;9.632;2022-11-15T07:35:49;3.50;;;3.30;;
15094;SDS011;7648;52.264;9.632;2022-11-15T07:40:09;3.73;;;3.40;;
15094;SDS011;7648;52.264;9.632;2022-11-15T07:44:30;3.27;;;2.97;;
15094;SDS011;7648;52.264;9.632;2022-11-15T07:48:52;3.77;;;3.47;;
15094;SDS011;7648;52.264;9.632;2022-11-15T07:53:12;3.17;;;2.97;;
15094;SDS011;7648;52.264;9.632;2022-11-15T07:57:33;3.70;;;3.40;;
15094;SDS011;7648;52.264;9.632;2022-11-15T08:01:53;3.57;;;3.23;;
15094;SDS011;7648;52.264;9.632;2022-11-15T08:06:15;5.30;;;3.57;;
15094;SDS011;7648;52.264;9.632;2022-11-15T08:10:36;3.17;;;3.07;;
15094;SDS011;7648;52.264;9.632;2022-11-15T08:14:57;3.10;;;2.90;;
15094;SDS011;7648;52.264;9.632;2022-11-15T08:19:17;3.53;;;3.23;;
15094;SDS011;7648;52.264;9.632;2022-11-15T08:23:40;3.50;;;3.20;;
15094;SDS011;7648;52.264;9.632;2022-11-15T08:28:01;2.83;;;2.63;;
15094;SDS011;7648;52.264;9.632;2022-11-15T08:32:23;3.20;;;2.97;;
15094;SDS011;7648;52.264;9.632;2022-11-15T08:36:44;3.47;;;3.23;;
15094;SDS011;7648;52.264;9.632;2022-11-15T08:41:05;2.93;;;2.73;;
15094;SDS011;7648;52.264;9.632;2022-11-15T08:45:26;3.20;;;3.00;;
15094;SDS011;7648;52.264;9.632;2022-11-15T08:49:46;3.03;;;2.83;;
15094;SDS011;7648;52.264;9.632;2022-11-15T08:54:07;4.83;;;2.90;;
15094;SDS011;7648;52.264;9.632;2022-11-15T08:58:28;4.03;;;3.33;;
15094;SDS011;7648;52.264;9.632;2022-11-15T09:02:49;4.60;;;3.30;;
15094;SDS011;7648;52.264;9.632;2022-11-15T09:07:09;2.83;;;2.63;;
15094;SDS011;7648;52.264;9.632;2022-11-15T09:11:30;4.20;;;2.70;;
15094;SDS011;7648;52.264;9.632;2022-11-15T09:15:52;3.90;;;2.73;;
15094;SDS011;7648;52.264;9.632;2022-11-15T09:20:16;3.30;;;2.67;;
15094;SDS011;7648;52.264;9.632;2022-11-15T09:24:37;3.23;;;2.50;;
15094;SDS011;7648;52.264;9.632;2022-11-15T09:28:57;2.60;;;2.40;;
15094;SDS011;7648;52.264;9.632;2022-11-15T09:33:21;2.70;;;2.50;;
15094;SDS011;7648;52.264;9.632;2022-11-15T09:37:42;2.40;;;2.20;;
15094;SDS011;7648;52.264;9.632;2022-11-15T09:42:06;3.07;;;2.87;;
15094;SDS011;7648;52.264;9.632;2022-11-15T09:46:42;4.23;;;3.83;;
15094;SDS011;7648;52.264;9.632;2022-11-15T09:50:55;3.77;;;2.67;;
15094;SDS011;7648;52.264;9.632;2022-11-15T09:54:59;3.00;;;2.80;;
15094;SDS011;7648;52.264;9.632;2022-11-15T09:59:14;2.77;;;2.57;;
15094;SDS011;7648;52.264;9.632;2022-11-15T10:03:27;2.50;;;2.40;;
15094;SDS011;7648;52.264;9.632;2022-11-15T10:07:37;2.50;;;2.30;;
15094;SDS011;7648;52.264;9.632;2022-11-15T10:11:52;2.90;;;2.60;;
15094;SDS011;7648;52.264;9.632;2022-11-15T10:15:56;2.63;;;2.43;;
15094;SDS011;7648;52.264;9.632;2022-11-15T10:20:08;2.97;;;2.63;;
15094;SDS011;7648;52.264;9.632;2022-11-15T10:24:19;2.60;;;2.50;;
15094;SDS011;7648;52.264;9.632;2022-11-15T10:28:25;2.97;;;2.77;;
15094;SDS011;7648;52.264;9.632;2022-11-15T10:32:29;2.50;;;2.30;;
15094;SDS011;7648;52.264;9.632;2022-11-15T10:36:35;2.33;;;2.17;;
15094;SDS011;7648;52.264;9.632;2022-11-15T10:40:39;2.50;;;2.40;;
15094;SDS011;7648;52.264;9.632;2022-11-15T10:44:44;2.23;;;2.13;;
15094;SDS011;7648;52.264;9.632;2022-11-15T10:48:46;2.07;;;1.90;;
15094;SDS011;7648;52.264;9.632;2022-11-15T10:52:48;2.43;;;2.20;;
15094;SDS011;7648;52.264;9.632;2022-11-15T10:56:53;3.20;;;3.00;;
15094;SDS011;7648;52.264;9.632;2022-11-15T11:00:57;2.73;;;2.53;;
15094;SDS011;7648;52.264;9.632;2022-11-15T11:05:25;2.70;;;2.20;;
15094;SDS011;7648;52.264;9.632;2022-11-15T11:09:31;2.00;;;1.90;;
15094;SDS011;7648;52.264;9.632;2022-11-15T11:13:37;2.50;;;2.40;;
15094;SDS011;7648;52.264;9.632;2022-11-15T11:17:45;2.83;;;2.30;;
15094;SDS011;7648;52.264;9.632;2022-11-15T11:21:56;1.87;;;1.77;;
15094;SDS011;7648;52.264;9.632;2022-11-15T11:26:10;2.30;;;2.20;;
15094;SDS011;7648;52.264;9.632;2022-11-15T11:30:30;2.20;;;2.10;;
15094;SDS011;7648;52.264;9.632;2022-11-15T11:34:44;2.17;;;2.07;;
15094;SDS011;7648;52.264;9.632;2022-11-15T11:38:56;2.37;;;2.27;;
15094;SDS011;7648;52.264;9.632;2022-11-15T11:43:04;2.57;;;2.27;;
15094;SDS011;7648;52.264;9.632;2022-11-15T11:47:17;2.33;;;2.13;;
15094;SDS011;7648;52.264;9.632;2022-11-15T11:51:26;1.83;;;1.73;;
15094;SDS011;7648;52.264;9.632;2022-11-15T11:55:34;1.57;;;1.57;;
15094;SDS011;7648;52.264;9.632;2022-11-15T11:59:41;1.80;;;1.70;;
15094;SDS011;7648;52.264;9.632;2022-11-15T12:03:51;2.03;;;1.87;;
15094;SDS011;7648;52.264;9.632;2022-11-15T12:07:59;2.00;;;1.90;;
15094;SDS011;7648;52.264;9.632;2022-11-15T12:12:06;1.87;;;1.77;;
15094;SDS011;7648;52.264;9.632;2022-11-15T12:16:13;2.00;;;1.90;;
15094;SDS011;7648;52.264;9.632;2022-11-15T12:20:20;1.73;;;1.63;;
15094;SDS011;7648;52.264;9.632;2022-11-15T12:24:25;2.10;;;2.00;;
15094;SDS011;7648;52.264;9.632;2022-11-15T12:28:33;2.07;;;1.97;;
15094;SDS011;7648;52.264;9.632;2022-11-15T12:32:47;2.07;;;1.97;;
15094;SDS011;7648;52.264;9.632;2022-11-15T12:36:54;2.50;;;2.30;;
15094;SDS011;7648;52.264;9.632;2022-11-15T12:41:12;1.97;;;1.87;;
15094;SDS011;7648;52.264;9.632;2022-11-15T12:45:25;2.17;;;2.07;;
15094;SDS011;7648;52.264;9.632;2022-11-15T12:49:47;2.20;;;2.10;;
15094;SDS011;7648;52.264;9.632;2022-11-15T12:53:51;2.23;;;2.13;;
15094;SDS011;7648;52.264;9.632;2022-11-15T12:57:53;2.10;;;2.00;;
15094;SDS011;7648;52.264;9.632;2022-11-15T13:01:57;2.47;;;2.27;;
15094;SDS011;7648;52.264;9.632;2022-11-15T13:06:05;2.03;;;1.93;;
15094;SDS011;7648;52.264;9.632;2022-11-15T13:14:44;2.40;;;2.20;;
15094;SDS011;7648;52.264;9.632;2022-11-15T13:18:52;2.70;;;2.50;;
15094;SDS011;7648;52.264;9.632;2022-11-15T13:23:00;2.40;;;2.30;;
15094;SDS011;7648;52.264;9.632;2022-11-15T13:27:10;2.43;;;2.33;;
15094;SDS011;7648;52.264;9.632;2022-11-15T13:35:38;3.70;;;2.30;;
15094;SDS011;7648;52.264;9.632;2022-11-15T13:39:42;2.60;;;2.40;;
15094;SDS011;7648;52.264;9.632;2022-11-15T13:43:45;2.73;;;2.53;;
15094;SDS011;7648;52.264;9.632;2022-11-15T13:47:51;2.60;;;2.50;;
15094;SDS011;7648;52.264;9.632;2022-11-15T13:51:55;2.87;;;2.60;;
15094;SDS011;7648;52.264;9.632;2022-11-15T13:55:57;2.63;;;2.53;;
15094;SDS011;7648;52.264;9.632;2022-11-15T14:00:02;2.37;;;2.27;;
15094;SDS011;7648;52.264;9.632;2022-11-15T14:04:13;2.47;;;2.37;;
15094;SDS011;7648;52.264;9.632;2022-11-15T14:08:21;2.87;;;2.77;;
15094;SDS011;7648;52.264;9.632;2022-11-15T14:12:29;2.93;;;2.73;;
15094;SDS011;7648;52.264;9.632;2022-11-15T14:16:34;2.57;;;2.27;;
15094;SDS011;7648;52.264;9.632;2022-11-15T14:20:38;5.43;;;2.60;;
15094;SDS011;7648;52.264;9.632;2022-11-15T14:24:40;2.50;;;2.30;;
15094;SDS011;7648;52.264;9.632;2022-11-15T14:28:44;2.33;;;2.13;;
15094;SDS011;7648;52.264;9.632;2022-11-15T14:32:48;2.70;;;2.57;;
15094;SDS011;7648;52.264;9.632;2022-11-15T14:36:50;2.50;;;2.30;;
15094;SDS011;7648;52.264;9.632;2022-11-15T14:40:52;2.93;;;2.37;;
15094;SDS011;7648;52.264;9.632;2022-11-15T14:44:55;2.17;;;2.03;;
15094;SDS011;7648;52.264;9.632;2022-11-15T14:48:59;2.47;;;2.27;;
15094;SDS011;7648;52.264;9.632;2022-11-15T14:53:01;2.37;;;2.27;;
15094;SDS011;7648;52.264;9.632;2022-11-15T14:57:03;2.37;;;2.27;;
15094;SDS011;7648;52.264;9.632;2022-11-15T15:01:09;2.50;;;2.30;;
15094;SDS011;7648;52.264;9.632;2022-11-15T15:05:16;2.37;;;2.17;;
15094;SDS011;7648;52.264;9.632;2022-11-15T15:09:19;2.83;;;2.63;;
15094;SDS011;7648;52.264;9.632;2022-11-15T15:13:22;2.77;;;2.57;;
15094;SDS011;7648;52.264;9.632;2022-11-15T15:17:25;2.93;;;2.73;;
15094;SDS011;7648;52.264;9.632;2022-11-15T15:21:28;2.67;;;2.47;;
15094;SDS011;7648;52.264;9.632;2022-11-15T15:25:31;4.00;;;3.60;;
15094;SDS011;7648;52.264;9.632;2022-11-15T15:29:34;3.33;;;3.03;;
15094;SDS011;7648;52.264;9.632;2022-11-15T15:33:36;2.83;;;2.63;;
15094;SDS011;7648;52.264;9.632;2022-11-15T15:37:40;3.07;;;2.77;;
15094;SDS011;7648;52.264;9.632;2022-11-15T15:41:43;2.90;;;2.70;;
15094;SDS011;7648;52.264;9.632;2022-11-15T15:45:45;2.80;;;2.60;;
15094;SDS011;7648;52.264;9.632;2022-11-15T15:49:47;2.57;;;2.37;;
15094;SDS011;7648;52.264;9.632;2022-11-15T15:53:50;2.40;;;2.30;;
15094;SDS011;7648;52.264;9.632;2022-11-15T15:57:57;2.30;;;2.20;;
15094;SDS011;7648;52.264;9.632;2022-11-15T16:01:59;2.83;;;2.63;;
15094;SDS011;7648;52.264;9.632;2022-11-15T16:06:01;5.40;;;2.80;;
15094;SDS011;7648;52.264;9.632;2022-11-15T16:10:13;3.10;;;2.90;;
15094;SDS011;7648;52.264;9.632;2022-11-15T16:14:20;3.17;;;2.97;;
15094;SDS011;7648;52.264;9.632;2022-11-15T16:18:22;3.63;;;3.10;;
15094;SDS011;7648;52.264;9.632;2022-11-15T16:22:24;2.90;;;2.70;;
15094;SDS011;7648;52.264;9.632;2022-11-15T16:26:28;2.83;;;2.63;;
15094;SDS011;7648;52.264;9.632;2022-11-15T16:30:31;3.93;;;3.57;;
15094;SDS011;7648;52.264;9.632;2022-11-15T16:34:33;2.43;;;2.33;;
15094;SDS011;7648;52.264;9.632;2022-11-15T16:38:35;2.73;;;2.53;;
15094;SDS011;7648;52.264;9.632;2022-11-15T16:42:40;2.87;;;2.67;;
15094;SDS011;7648;52.264;9.632;2022-11-15T16:46:42;2.77;;;2.57;;
15094;SDS011;7648;52.264;9.632;2022-11-15T16:50:46;2.83;;;2.73;;
15094;SDS011;7648;52.264;9.632;2022-11-15T16:54:48;2.43;;;2.23;;
15094;SDS011;7648;52.264;9.632;2022-11-15T16:58:52;2.47;;;2.30;;
15094;SDS011;7648;52.264;9.632;2022-11-15T17:02:54;2.73;;;2.53;;
15094;SDS011;7648;52.264;9.632;2022-11-15T17:06:58;2.27;;;2.10;;
15094;SDS011;7648;52.264;9.632;2022-11-15T17:11:03;2.63;;;2.23;;
15094;SDS011;7648;52.264;9.632;2022-11-15T17:15:09;2.40;;;2.30;;
15094;SDS011;7648;52.264;9.632;2022-11-15T17:19:13;3.20;;;2.90;;
15094;SDS011;7648;52.264;9.632;2022-11-15T17:23:15;3.00;;;2.80;;
15094;SDS011;7648;52.264;9.632;2022-11-15T17:27:17;2.77;;;2.57;;
15094;SDS011;7648;52.264;9.632;2022-11-15T17:31:22;2.60;;;2.40;;
15094;SDS011;7648;52.264;9.632;2022-11-15T17:35:24;2.90;;;2.80;;
15094;SDS011;7648;52.264;9.632;2022-11-15T17:39:26;2.97;;;2.77;;
15094;SDS011;7648;52.264;9.632;2022-11-15T17:43:28;2.83;;;2.53;;
15094;SDS011;7648;52.264;9.632;2022-11-15T17:47:32;3.00;;;2.80;;
15094;SDS011;7648;52.264;9.632;2022-11-15T17:51:34;3.00;;;2.80;;
15094;SDS011;7648;52.264;9.632;2022-11-15T17:55:39;3.20;;;3.00;;
15094;SDS011;7648;52.264;9.632;2022-11-15T17:59:41;3.47;;;3.27;;
15094;SDS011;7648;52.264;9.632;2022-11-15T18:03:45;3.80;;;3.50;;
15094;SDS011;7648;52.264;9.632;2022-11-15T18:07:47;3.77;;;3.57;;
15094;SDS011;7648;52.264;9.632;2022-11-15T18:11:49;3.50;;;3.30;;
15094;SDS011;7648;52.264;9.632;2022-11-15T18:15:52;3.80;;;3.50;;
15094;SDS011;7648;52.264;9.632;2022-11-15T18:19:56;3.50;;;3.20;;
15094;SDS011;7648;52.264;9.632;2022-11-15T18:23:59;3.20;;;2.90;;
15094;SDS011;7648;52.264;9.632;2022-11-15T18:28:02;2.90;;;2.70;;
15094;SDS011;7648;52.264;9.632;2022-11-15T18:32:04;3.07;;;2.87;;
15094;SDS011;7648;52.264;9.632;2022-11-15T18:36:12;2.80;;;2.60;;
15094;SDS011;7648;52.264;9.632;2022-11-15T18:40:15;2.43;;;2.30;;
15094;SDS011;7648;52.264;9.632;2022-11-15T18:44:17;2.63;;;2.50;;
15094;SDS011;7648;52.264;9.632;2022-11-15T18:48:19;3.00;;;2.83;;
15094;SDS011;7648;52.264;9.632;2022-11-15T18:52:23;3.00;;;2.80;;
15094;SDS011;7648;52.264;9.632;2022-11-15T18:56:25;3.80;;;3.50;;
15094;SDS011;7648;52.264;9.632;2022-11-15T19:00:28;4.50;;;4.10;;
15094;SDS011;7648;52.264;9.632;2022-11-15T19:04:31;3.93;;;3.63;;
15094;SDS011;7648;52.264;9.632;2022-11-15T19:08:34;4.70;;;4.30;;
15094;SDS011;7648;52.264;9.632;2022-11-15T19:12:37;4.23;;;3.93;;
15094;SDS011;7648;52.264;9.632;2022-11-15T19:16:39;3.50;;;3.30;;
15094;SDS011;7648;52.264;9.632;2022-11-15T19:20:43;3.50;;;3.30;;
15094;SDS011;7648;52.264;9.632;2022-11-15T19:24:46;12.30;;;8.77;;
15094;SDS011;7648;52.264;9.632;2022-11-15T19:28:49;8.73;;;6.33;;
15094;SDS011;7648;52.264;9.632;2022-11-15T19:32:52;6.77;;;5.40;;
15094;SDS011;7648;52.264;9.632;2022-11-15T19:36:54;7.23;;;6.03;;
15094;SDS011;7648;52.264;9.632;2022-11-15T19:40:58;4.57;;;4.20;;
15094;SDS011;7648;52.264;9.632;2022-11-15T19:45:00;4.83;;;4.40;;
15094;SDS011;7648;52.264;9.632;2022-11-15T19:49:02;4.67;;;4.33;;
15094;SDS011;7648;52.264;9.632;2022-11-15T19:53:06;4.30;;;4.00;;
15094;SDS011;7648;52.264;9.632;2022-11-15T19:57:09;4.57;;;4.27;;
15094;SDS011;7648;52.264;9.632;2022-11-15T20:01:12;3.90;;;3.60;;
15094;SDS011;7648;52.264;9.632;2022-11-15T20:05:17;4.37;;;3.97;;
15094;SDS011;7648;52.264;9.632;2022-11-15T20:09:19;4.70;;;4.30;;
15094;SDS011;7648;52.264;9.632;2022-11-15T20:13:22;5.73;;;4.90;;
15094;SDS011;7648;52.264;9.632;2022-11-15T20:17:25;7.37;;;5.40;;
15094;SDS011;7648;52.264;9.632;2022-11-15T20:21:26;6.93;;;6.03;;
15094;SDS011;7648;52.264;9.632;2022-11-15T20:25:28;7.33;;;5.80;;
15094;SDS011;7648;52.264;9.632;2022-11-15T20:29:32;6.20;;;5.63;;
15094;SDS011;7648;52.264;9.632;2022-11-15T20:33:34;5.73;;;4.70;;
15094;SDS011;7648;52.264;9.632;2022-11-15T20:37:36;3.40;;;3.10;;
15094;SDS011;7648;52.264;9.632;2022-11-15T20:41:38;2.73;;;2.53;;
15094;SDS011;7648;52.264;9.632;2022-11-15T20:45:43;4.27;;;2.83;;
15094;SDS011;7648;52.264;9.632;2022-11-15T20:49:45;2.90;;;2.70;;
15094;SDS011;7648;52.264;9.632;2022-11-15T20:53:47;2.33;;;2.23;;
15094;SDS011;7648;52.264;9.632;2022-11-15T20:57:49;2.30;;;2.20;;
15094;SDS011;7648;52.264;9.632;2022-11-15T21:01:53;2.87;;;2.67;;
15094;SDS011;7648;52.264;9.632;2022-11-15T21:05:55;3.00;;;2.80;;
15094;SDS011;7648;52.264;9.632;2022-11-15T21:09:57;2.80;;;2.70;;
15094;SDS011;7648;52.264;9.632;2022-11-15T21:14:19;3.77;;;3.20;;
15094;SDS011;7648;52.264;9.632;2022-11-15T21:18:22;3.47;;;2.80;;
15094;SDS011;7648;52.264;9.632;2022-11-15T21:22:24;2.93;;;2.73;;
15094;SDS011;7648;52.264;9.632;2022-11-15T21:26:26;3.30;;;3.00;;
15094;SDS011;7648;52.264;9.632;2022-11-15T21:30:28;3.40;;;3.17;;
15094;SDS011;7648;52.264;9.632;2022-11-15T21:34:32;3.70;;;3.40;;
15094;SDS011;7648;52.264;9.632;2022-11-15T21:38:34;3.10;;;2.90;;
15094;SDS011;7648;52.264;9.632;2022-11-15T21:42:36;4.00;;;2.90;;
15094;SDS011;7648;52.264;9.632;2022-11-15T21:46:38;3.33;;;3.03;;
15094;SDS011;7648;52.264;9.632;2022-11-15T21:50:41;2.83;;;2.63;;
15094;SDS011;7648;52.264;9.632;2022-11-15T21:54:43;3.20;;;2.90;;
15094;SDS011;7648;52.264;9.632;2022-11-15T21:58:45;2.87;;;2.67;;
15094;SDS011;7648;52.264;9.632;2022-11-15T22:02:47;3.20;;;2.90;;
15094;SDS011;7648;52.264;9.632;2022-11-15T22:06:50;3.50;;;2.43;;
15094;SDS011;7648;52.264;9.632;2022-11-15T22:10:52;2.37;;;2.27;;
15094;SDS011;7648;52.264;9.632;2022-11-15T22:14:55;2.20;;;2.10;;
15094;SDS011;7648;52.264;9.632;2022-11-15T22:18:57;3.90;;;3.17;;
15094;SDS011;7648;52.264;9.632;2022-11-15T22:23:01;3.37;;;3.17;;
15094;SDS011;7648;52.264;9.632;2022-11-15T22:27:04;3.23;;;3.03;;
15094;SDS011;7648;52.264;9.632;2022-11-15T22:31:06;3.10;;;2.90;;
15094;SDS011;7648;52.264;9.632;2022-11-15T22:35:08;3.10;;;2.90;;
15094;SDS011;7648;52.264;9.632;2022-11-15T22:39:12;3.30;;;3.10;;
15094;SDS011;7648;52.264;9.632;2022-11-15T22:43:14;3.20;;;2.90;;
15094;SDS011;7648;52.264;9.632;2022-11-15T22:47:18;3.00;;;2.80;;
15094;SDS011;7648;52.264;9.632;2022-11-15T22:51:20;2.43;;;2.33;;
15094;SDS011;7648;52.264;9.632;2022-11-15T22:55:23;2.53;;;2.43;;
15094;SDS011;7648;52.264;9.632;2022-11-15T22:59:25;2.77;;;2.67;;
15094;SDS011;7648;52.264;9.632;2022-11-15T23:03:28;2.80;;;2.60;;
15094;SDS011;7648;52.264;9.632;2022-11-15T23:07:31;3.00;;;2.80;;
15094;SDS011;7648;52.264;9.632;2022-11-15T23:11:34;2.93;;;2.70;;
15094;SDS011;7648;52.264;9.632;2022-11-15T23:15:59;3.40;;;3.00;;
15094;SDS011;7648;52.264;9.632;2022-11-15T23:20:20;2.63;;;2.53;;
15094;SDS011;7648;52.264;9.632;2022-11-15T23:24:22;4.90;;;3.17;;
15094;SDS011;7648;52.264;9.632;2022-11-15T23:28:25;2.80;;;2.60;;
15094;SDS011;7648;52.264;9.632;2022-11-15T23:32:27;2.50;;;2.40;;
15094;SDS011;7648;52.264;9.632;2022-11-15T23:36:47;2.40;;;2.20;;
15094;SDS011;7648;52.264;9.632;2022-11-15T23:40:49;2.43;;;2.33;;
15094;SDS011;7648;52.264;9.632;2022-11-15T23:44:53;2.70;;;2.50;;
15094;SDS011;7648;52.264;9.632;2022-11-15T23:48:55;2.30;;;2.20;;
15094;SDS011;7648;52.264;9.632;2022-11-15T23:52:57;2.23;;;2.13;;
15094;SDS011;7648;52.264;9.632;2022-11-15T23:56:59;2.60;;;2.40;;
